Time;durP1;ratioP1;P1;durP2;ratioP2;P2;SDS_P1;SDS_P2;PMS_P1;PMS_P2;Temp;Humidity;BMP_temperature;BMP_pressure;BME280_temperature;BME280_humidity;BME280_pressure;Samples;Min_cycle;Max_cycle;Signal;HPM_P1;HPM_P2
2021/08/20 00:00:58;;;;;;;8.95;5.07;;;26.10;96.70;;;;;;4770260;29;20100;-84
2021/08/20 00:03:26;;;;;;;7.07;4.57;;;26.00;96.70;;;;;;4772522;29;20057;-84
2021/08/20 00:05:55;;;;;;;7.13;4.93;;;26.00;96.70;;;;;;4769959;30;20047;-84
2021/08/20 00:08:23;;;;;;;5.85;4.68;;;26.00;96.70;;;;;;4760544;29;20051;-84
2021/08/20 00:10:51;;;;;;;6.95;4.85;;;26.00;96.70;;;;;;4787377;29;20047;-83
2021/08/20 00:13:21;;;;;;;5.88;4.57;;;25.90;96.70;;;;;;4778485;29;20054;-83
2021/08/20 00:15:49;;;;;;;8.18;4.90;;;25.90;96.70;;;;;;4794370;29;20117;-83
2021/08/20 00:18:17;;;;;;;6.95;4.55;;;25.90;96.70;;;;;;4790179;29;20061;-84
2021/08/20 00:20:46;;;;;;;7.13;4.65;;;26.00;96.70;;;;;;4768266;29;20047;-85
2021/08/20 00:23:14;;;;;;;6.20;4.95;;;26.00;96.70;;;;;;4765444;29;20494;-85
2021/08/20 00:25:43;;;;;;;8.65;4.93;;;25.90;96.70;;;;;;4773678;29;20061;-85
2021/08/20 00:28:11;;;;;;;11.02;5.35;;;25.90;96.70;;;;;;4773267;29;20091;-85
2021/08/20 00:30:43;;;;;;;6.93;4.35;;;25.90;96.70;;;;;;4771151;29;20438;-85
2021/08/20 00:33:12;;;;;;;6.32;4.40;;;25.80;96.70;;;;;;4760362;29;20145;-85
2021/08/20 00:35:40;;;;;;;6.75;4.30;;;25.90;96.70;;;;;;4770238;29;20136;-85
2021/08/20 00:38:09;;;;;;;7.63;4.75;;;25.80;96.70;;;;;;4770674;30;20166;-85
2021/08/20 00:40:39;;;;;;;7.28;4.57;;;25.80;96.70;;;;;;4793863;29;20042;-86
2021/08/20 00:43:07;;;;;;;7.47;4.75;;;25.60;96.70;;;;;;4774858;29;20613;-85
2021/08/20 00:45:36;;;;;;;7.75;4.63;;;25.70;96.70;;;;;;4777745;29;20561;-85
2021/08/20 00:48:06;;;;;;;6.43;4.70;;;25.60;96.70;;;;;;4782284;29;20156;-85
2021/08/20 00:50:35;;;;;;;7.22;4.72;;;25.70;96.70;;;;;;4777848;29;20503;-84
2021/08/20 00:53:04;;;;;;;7.93;4.68;;;25.80;96.70;;;;;;4767642;29;20047;-85
2021/08/20 00:55:32;;;;;;;7.82;5.15;;;25.80;96.70;;;;;;4768377;29;20125;-85
2021/08/20 00:58:02;;;;;;;7.57;4.32;;;25.70;96.70;;;;;;4777132;29;20086;-85
2021/08/20 01:00:30;;;;;;;5.55;4.60;;;25.80;96.70;;;;;;4769077;29;20063;-85
2021/08/20 01:02:59;;;;;;;6.85;4.78;;;25.80;96.70;;;;;;4789705;29;20093;-85
2021/08/20 01:05:30;;;;;;;8.93;5.50;;;25.70;96.70;;;;;;4785972;29;20055;-85
2021/08/20 01:08:00;;;;;;;7.93;4.93;;;25.70;96.70;;;;;;4758308;30;20059;-85
2021/08/20 01:10:29;;;;;;;5.63;4.65;;;25.60;96.70;;;;;;4770126;29;20082;-85
2021/08/20 01:12:57;;;;;;;7.65;5.15;;;25.50;96.70;;;;;;4770466;29;20056;-84
2021/08/20 01:15:25;;;;;;;8.70;5.03;;;25.40;96.70;;;;;;4770648;29;20141;-85
2021/08/20 01:17:53;;;;;;;8.40;5.25;;;25.30;96.70;;;;;;4768358;29;20059;-85
2021/08/20 01:20:21;;;;;;;7.72;5.05;;;25.20;96.70;;;;;;4773038;29;20558;-85
2021/08/20 01:22:51;;;;;;;7.22;4.85;;;25.20;96.70;;;;;;4779089;29;20053;-84
2021/08/20 01:25:21;;;;;;;6.93;4.63;;;25.10;96.70;;;;;;4778566;29;20061;-85
2021/08/20 01:28:04;;;;;;;5.32;4.43;;;25.10;96.70;;;;;;4778704;29;20051;-85
2021/08/20 01:30:35;;;;;;;7.10;5.25;;;25.20;96.70;;;;;;4774322;29;20043;-85
2021/08/20 01:33:04;;;;;;;8.07;4.50;;;25.20;96.70;;;;;;4774011;29;20051;-84
2021/08/20 01:35:35;;;;;;;6.00;4.68;;;25.30;96.70;;;;;;4790290;29;20108;-85
2021/08/20 01:38:04;;;;;;;7.35;4.90;;;25.40;96.70;;;;;;4782486;29;20067;-85
2021/08/20 01:40:34;;;;;;;6.43;4.25;;;25.30;96.70;;;;;;4786156;29;20050;-85
2021/08/20 01:43:04;;;;;;;7.55;4.55;;;25.30;96.70;;;;;;4785732;29;20047;-85
2021/08/20 01:45:32;;;;;;;7.00;4.40;;;25.10;96.70;;;;;;4778980;29;20066;-85
2021/08/20 01:48:01;;;;;;;5.95;4.38;;;25.10;96.70;;;;;;4759575;30;20051;-85
2021/08/20 01:50:29;;;;;;;6.68;4.57;;;25.10;96.70;;;;;;4783139;29;20050;-85
2021/08/20 01:52:57;;;;;;;5.95;4.53;;;25.10;96.70;;;;;;4763981;29;20055;-85
2021/08/20 01:59:10;;;;;;;7.38;4.10;;;25.00;96.70;;;;;;4780819;29;20053;-85
2021/08/20 02:01:40;;;;;;;10.85;4.32;;;25.00;96.70;;;;;;4766432;29;20059;-85
2021/08/20 02:04:09;;;;;;;8.13;4.15;;;25.10;96.70;;;;;;4782396;29;20133;-84
2021/08/20 02:06:39;;;;;;;6.45;4.05;;;25.00;96.70;;;;;;4774533;29;20039;-84
2021/08/20 02:09:09;;;;;;;5.43;3.60;;;25.10;96.70;;;;;;4760632;29;20142;-84
2021/08/20 02:11:40;;;;;;;5.00;3.50;;;25.00;96.70;;;;;;4770624;29;20042;-85
2021/08/20 02:14:11;;;;;;;6.75;3.70;;;25.00;96.70;;;;;;4778369;29;20050;-84
2021/08/20 02:16:41;;;;;;;6.55;4.00;;;24.90;96.70;;;;;;4769956;29;20094;-85
2021/08/20 02:19:34;;;;;;;8.48;4.78;;;24.80;96.70;;;;;;4774822;29;20122;-86
2021/08/20 02:22:03;;;;;;;8.68;4.30;;;24.70;96.70;;;;;;4774908;29;20047;-85
2021/08/20 02:24:45;;;;;;;7.25;4.50;;;24.70;96.70;;;;;;4765564;29;20051;-86
2021/08/20 02:27:14;;;;;;;9.07;4.45;;;24.70;96.70;;;;;;4769078;29;20062;-86
2021/08/20 02:29:46;;;;;;;7.25;4.45;;;24.70;96.70;;;;;;4779058;29;20047;-86
2021/08/20 02:32:14;;;;;;;5.80;4.45;;;24.70;96.70;;;;;;4777882;29;20051;-86
2021/08/20 02:34:43;;;;;;;6.65;4.30;;;24.60;96.70;;;;;;4774587;29;20074;-85
2021/08/20 02:37:13;;;;;;;8.55;4.72;;;24.60;96.70;;;;;;4789197;29;20043;-85
2021/08/20 02:39:44;;;;;;;6.88;4.78;;;24.60;96.70;;;;;;4777391;29;20075;-85
2021/08/20 02:42:14;;;;;;;5.88;4.43;;;24.70;96.70;;;;;;4779271;29;20126;-85
2021/08/20 02:44:43;;;;;;;6.38;4.20;;;24.60;96.70;;;;;;4764728;29;20055;-85
2021/08/20 02:47:15;;;;;;;9.13;4.28;;;24.50;96.70;;;;;;4768982;29;20047;-85
2021/08/20 02:49:45;;;;;;;5.97;4.22;;;24.40;96.70;;;;;;4782737;29;20054;-85
2021/08/20 02:52:14;;;;;;;6.95;4.88;;;24.40;96.70;;;;;;4789879;29;20050;-85
2021/08/20 02:54:42;;;;;;;8.18;5.18;;;24.40;96.70;;;;;;4767308;29;20054;-85
2021/08/20 02:57:11;;;;;;;7.78;4.40;;;24.40;96.70;;;;;;4757164;29;20085;-83
2021/08/20 02:59:46;;;;;;;7.68;4.70;;;24.40;96.70;;;;;;4776948;29;20086;-83
2021/08/20 03:02:16;;;;;;;8.60;4.90;;;24.40;96.70;;;;;;4765629;29;20074;-83
2021/08/20 03:04:44;;;;;;;6.55;4.25;;;24.40;96.70;;;;;;4769438;29;20059;-83
2021/08/20 03:07:16;;;;;;;7.45;4.50;;;24.40;96.70;;;;;;4762976;29;20070;-83
2021/08/20 03:09:44;;;;;;;7.85;4.43;;;24.20;96.70;;;;;;4760491;29;20059;-84
2021/08/20 03:12:13;;;;;;;7.03;4.25;;;24.30;96.70;;;;;;4769079;29;20062;-84
2021/08/20 03:14:49;;;;;;;6.00;4.47;;;24.30;96.70;;;;;;4773905;29;20055;-84
2021/08/20 03:17:19;;;;;;;6.80;4.95;;;24.30;96.70;;;;;;4760949;29;20062;-84
2021/08/20 03:19:47;;;;;;;6.90;4.40;;;24.40;96.70;;;;;;4770319;29;20116;-84
2021/08/20 03:22:15;;;;;;;7.00;4.97;;;24.40;96.70;;;;;;4760053;29;20039;-83
2021/08/20 03:24:44;;;;;;;6.10;4.57;;;24.40;96.70;;;;;;4781036;29;20066;-83
2021/08/20 03:27:12;;;;;;;6.40;4.50;;;24.30;96.70;;;;;;4769579;29;20155;-82
2021/08/20 03:29:52;;;;;;;6.03;4.53;;;24.20;96.70;;;;;;4771288;29;20147;-84
2021/08/20 03:32:29;;;;;;;7.45;4.60;;;24.20;96.70;;;;;;4775626;30;20065;-82
2021/08/20 03:34:57;;;;;;;10.75;4.90;;;24.10;96.70;;;;;;4765736;29;20050;-82
2021/08/20 03:37:58;;;;;;;6.45;4.57;;;24.10;96.70;;;;;;4784064;29;20170;-82
2021/08/20 03:40:30;;;;;;;6.30;4.35;;;24.10;96.70;;;;;;4765584;29;20469;-82
2021/08/20 03:43:01;;;;;;;8.45;4.65;;;24.20;96.70;;;;;;4771508;29;20051;-82
2021/08/20 03:45:41;;;;;;;7.07;4.63;;;24.20;96.70;;;;;;4775126;29;20115;-83
2021/08/20 03:48:26;;;;;;;7.43;5.03;;;24.10;96.70;;;;;;4772958;29;20046;-82
2021/08/20 03:50:57;;;;;;;6.22;4.57;;;24.20;96.70;;;;;;4756787;29;20047;-82
2021/08/20 03:53:28;;;;;;;6.25;4.80;;;24.30;96.70;;;;;;4772768;29;20490;-82
2021/08/20 03:55:59;;;;;;;5.65;4.93;;;24.20;96.70;;;;;;4765165;29;20066;-83
2021/08/20 03:59:09;;;;;;;8.65;5.00;;;24.10;96.70;;;;;;4768247;30;20047;-85
2021/08/20 04:01:37;;;;;;;8.10;5.53;;;24.00;96.70;;;;;;4755891;30;20059;-86
2021/08/20 04:04:08;;;;;;;8.48;4.78;;;23.90;96.70;;;;;;4776026;29;20051;-85
2021/08/20 04:06:50;;;;;;;8.35;4.50;;;23.90;96.70;;;;;;4768896;29;20051;-85
2021/08/20 04:09:21;;;;;;;7.15;4.88;;;23.80;96.70;;;;;;4771334;29;20319;-86
2021/08/20 04:11:53;;;;;;;7.43;4.38;;;23.80;96.70;;;;;;4792471;29;20066;-85
2021/08/20 04:14:29;;;;;;;;;;;23.80;96.70;;;;;;4767055;29;20051;-86
2021/08/20 04:16:58;;;;;;;8.10;5.05;;;23.90;96.70;;;;;;4775069;29;19929;-85
2021/08/20 04:19:28;;;;;;;6.80;4.57;;;23.90;96.70;;;;;;4767722;29;20082;-85
2021/08/20 04:21:57;;;;;;;6.18;4.50;;;23.90;96.70;;;;;;4778850;29;20047;-84
2021/08/20 04:24:26;;;;;;;7.05;3.95;;;23.90;96.70;;;;;;4770687;29;20656;-85
2021/08/20 04:27:02;;;;;;;7.23;4.47;;;23.90;96.70;;;;;;4777884;29;20059;-85
2021/08/20 04:29:39;;;;;;;7.30;4.97;;;23.90;96.70;;;;;;4776867;29;20051;-85
2021/08/20 04:32:25;;;;;;;5.38;4.28;;;23.90;96.70;;;;;;4775286;29;20158;-85
2021/08/20 04:35:19;;;;;;;7.05;5.05;;;23.90;96.70;;;;;;4776246;30;20111;-85
2021/08/20 04:38:09;;;;;;;8.23;4.80;;;23.90;96.70;;;;;;4778885;29;20051;-85
2021/08/20 04:41:10;;;;;;;7.53;4.80;;;23.90;96.70;;;;;;4696333;30;20469;-85
2021/08/20 04:43:50;;;;;;;6.68;4.18;;;23.90;96.70;;;;;;4689511;30;20047;-85
2021/08/20 04:46:44;;;;;;;5.88;4.22;;;23.90;96.70;;;;;;4673232;30;21091;-86
2021/08/20 04:49:22;;;;;;;6.65;4.20;;;23.90;96.70;;;;;;4670684;30;20169;-84
2021/08/20 04:52:19;;;;;;;6.63;4.30;;;23.90;96.70;;;;;;4659060;30;20077;-84
2021/08/20 04:55:17;;;;;;;5.00;3.88;;;23.80;96.70;;;;;;4677506;30;20513;-85
2021/08/20 04:57:46;;;;;;;7.13;4.18;;;23.90;96.70;;;;;;4657821;30;20066;-85
2021/08/20 05:00:15;;;;;;;6.72;3.72;;;23.90;96.70;;;;;;4664450;30;20085;-84
2021/08/20 05:02:43;;;;;;;6.13;4.10;;;24.00;96.70;;;;;;4673935;30;20466;-85
2021/08/20 05:05:14;;;;;;;6.40;3.95;;;24.00;96.70;;;;;;4652165;30;20605;-85
2021/08/20 05:07:44;;;;;;;8.68;3.95;;;24.00;96.70;;;;;;4670642;30;20097;-84
2021/08/20 05:10:13;;;;;;;7.63;4.50;;;24.00;96.70;;;;;;4667803;30;20664;-85
2021/08/20 05:12:41;;;;;;;13.05;4.15;;;24.00;96.70;;;;;;4667628;30;20062;-85
2021/08/20 05:15:10;;;;;;;6.68;3.70;;;24.00;96.70;;;;;;4667632;30;20088;-85
2021/08/20 05:17:39;;;;;;;6.60;4.05;;;24.10;96.70;;;;;;4704948;30;20063;-84
2021/08/20 05:20:08;;;;;;;5.60;4.05;;;24.10;96.70;;;;;;4710646;30;20110;-83
2021/08/20 05:22:45;;;;;;;7.10;4.10;;;24.20;96.70;;;;;;4728417;30;20114;-84
2021/08/20 05:25:15;;;;;;;7.68;4.22;;;24.10;96.70;;;;;;4776130;29;20051;-85
2021/08/20 05:27:43;;;;;;;6.70;4.10;;;24.20;96.70;;;;;;4780981;29;20050;-84
2021/08/20 05:30:13;;;;;;;7.38;4.00;;;24.20;96.70;;;;;;4775121;29;20514;-84
2021/08/20 05:32:41;;;;;;;8.40;4.43;;;24.20;96.70;;;;;;4790455;29;20043;-85
2021/08/20 05:35:12;;;;;;;5.95;3.95;;;24.20;96.70;;;;;;4792344;29;20039;-85
2021/08/20 05:37:41;;;;;;;6.13;3.85;;;24.10;96.70;;;;;;4780983;29;20151;-84
2021/08/20 05:40:12;;;;;;;9.57;4.47;;;24.10;96.70;;;;;;4775007;29;20051;-84
2021/08/20 05:42:40;;;;;;;6.20;4.30;;;24.10;96.70;;;;;;4773703;29;20091;-86
2021/08/20 05:45:10;;;;;;;5.78;4.25;;;24.10;96.70;;;;;;4764982;29;20054;-85
2021/08/20 05:47:38;;;;;;;6.25;4.43;;;24.10;96.70;;;;;;4781545;29;20047;-84
2021/08/20 05:50:08;;;;;;;6.28;4.38;;;24.10;96.70;;;;;;4774588;29;20108;-85
2021/08/20 05:52:38;;;;;;;4.72;4.32;;;24.00;96.70;;;;;;4789467;29;20063;-86
2021/08/20 05:55:08;;;;;;;6.88;4.03;;;24.00;96.70;;;;;;4772714;29;20061;-86
2021/08/20 05:57:38;;;;;;;7.07;4.22;;;24.10;96.70;;;;;;4773570;30;20046;-86
2021/08/20 06:00:07;;;;;;;7.07;4.15;;;24.10;96.70;;;;;;4774676;29;20505;-86
2021/08/20 06:02:49;;;;;;;4.15;3.60;;;24.10;96.70;;;;;;4776965;29;20173;-86
2021/08/20 06:05:20;;;;;;;7.07;4.18;;;24.20;96.70;;;;;;4772368;29;20083;-85
2021/08/20 06:07:49;;;;;;;6.72;4.25;;;24.20;96.70;;;;;;4769676;29;20142;-85
2021/08/20 06:10:18;;;;;;;8.90;4.68;;;24.20;96.70;;;;;;4775218;29;20064;-85
2021/08/20 06:12:48;;;;;;;6.10;4.18;;;24.30;96.70;;;;;;4793272;29;20047;-86
2021/08/20 06:15:17;;;;;;;6.65;3.90;;;24.20;96.70;;;;;;4776887;29;20162;-85
2021/08/20 06:17:46;;;;;;;9.48;4.57;;;24.30;96.70;;;;;;4792366;29;20055;-86
2021/08/20 06:20:15;;;;;;;6.10;4.05;;;24.30;96.70;;;;;;4780095;29;20058;-86
2021/08/20 06:22:44;;;;;;;7.22;4.65;;;24.40;96.70;;;;;;4777721;29;20046;-86
2021/08/20 06:25:12;;;;;;;9.10;4.40;;;24.50;96.70;;;;;;4777501;29;20046;-86
2021/08/20 06:27:41;;;;;;;6.50;4.70;;;24.60;96.70;;;;;;4774718;29;20047;-85
2021/08/20 06:30:12;;;;;;;6.63;4.07;;;24.60;96.70;;;;;;4793389;29;20047;-85
2021/08/20 06:32:40;;;;;;;6.97;3.92;;;24.60;96.70;;;;;;4782887;29;20118;-85
2021/08/20 06:35:09;;;;;;;7.70;4.45;;;24.60;96.70;;;;;;4777365;29;20150;-84
2021/08/20 06:37:38;;;;;;;9.23;5.10;;;24.70;96.70;;;;;;4761723;29;20091;-88
2021/08/20 06:40:07;;;;;;;5.03;4.28;;;24.80;96.70;;;;;;4774456;29;20055;-87
2021/08/20 06:42:35;;;;;;;7.68;5.28;;;24.70;96.70;;;;;;4774983;29;20269;-86
2021/08/20 06:45:04;;;;;;;10.13;6.13;;;24.80;96.70;;;;;;4791946;29;20063;-87
2021/08/20 06:47:34;;;;;;;10.10;5.60;;;24.80;96.70;;;;;;4767715;29;20088;-87
2021/08/20 06:50:02;;;;;;;8.48;5.00;;;24.70;96.70;;;;;;4778031;29;20065;-89
2021/08/20 06:52:31;;;;;;;9.23;6.00;;;24.80;96.70;;;;;;4779565;29;20091;-86
2021/08/20 06:54:59;;;;;;;10.20;5.95;;;24.70;96.70;;;;;;4776537;29;20510;-85
2021/08/20 06:57:27;;;;;;;9.52;6.30;;;24.80;96.70;;;;;;4767112;29;20046;-88
2021/08/20 06:59:56;;;;;;;10.05;5.65;;;24.70;96.70;;;;;;4793372;29;20050;-84
2021/08/20 07:02:25;;;;;;;9.35;5.72;;;24.70;96.70;;;;;;4775610;29;20063;-83
2021/08/20 07:04:55;;;;;;;8.65;5.05;;;24.70;96.70;;;;;;4757910;29;20059;-84
2021/08/20 07:07:23;;;;;;;9.57;5.68;;;24.70;96.70;;;;;;4776363;29;20043;-85
2021/08/20 07:09:52;;;;;;;8.07;5.13;;;24.80;96.70;;;;;;4788237;29;20058;-86
2021/08/20 07:12:20;;;;;;;6.95;5.20;;;24.90;96.70;;;;;;4777800;29;20047;-88
2021/08/20 07:14:48;;;;;;;8.65;5.60;;;25.00;96.70;;;;;;4774229;29;20145;-85
2021/08/20 07:17:17;;;;;;;7.93;5.45;;;25.10;96.70;;;;;;4775864;29;20055;-89
2021/08/20 07:19:46;;;;;;;7.93;4.40;;;25.00;96.70;;;;;;4790072;29;20062;-89
2021/08/20 07:22:16;;;;;;;8.95;5.53;;;25.00;96.70;;;;;;4771335;29;20521;-86
2021/08/20 07:24:44;;;;;;;6.80;4.97;;;25.00;96.70;;;;;;4761128;30;20062;-85
2021/08/20 07:27:13;;;;;;;8.55;5.22;;;25.10;96.70;;;;;;4767584;29;20061;-87
2021/08/20 07:29:42;;;;;;;8.90;5.15;;;25.20;96.70;;;;;;4772774;29;20055;-86
2021/08/20 07:32:10;;;;;;;7.53;5.13;;;25.30;96.70;;;;;;4780041;29;20122;-88
2021/08/20 07:34:39;;;;;;;9.35;4.72;;;25.40;96.70;;;;;;4790402;29;20541;-88
2021/08/20 07:37:07;;;;;;;7.00;4.85;;;25.60;96.70;;;;;;4772555;29;20567;-89
2021/08/20 07:39:37;;;;;;;8.07;4.70;;;25.70;96.70;;;;;;4790777;29;20432;-86
2021/08/20 07:42:06;;;;;;;9.95;4.85;;;25.70;96.70;;;;;;4789667;29;20046;-87
2021/08/20 07:44:34;;;;;;;8.52;4.95;;;25.70;96.70;;;;;;4781688;29;20039;-87
2021/08/20 07:47:03;;;;;;;6.95;4.85;;;25.80;96.70;;;;;;4780665;29;20054;-87
2021/08/20 07:49:31;;;;;;;7.20;4.82;;;25.90;96.70;;;;;;4798967;29;20046;-86
2021/08/20 07:51:59;;;;;;;6.30;4.22;;;25.90;96.70;;;;;;4774762;29;20521;-86
2021/08/20 07:54:27;;;;;;;5.60;4.05;;;25.90;96.70;;;;;;4781375;29;20155;-87
2021/08/20 07:56:57;;;;;;;6.35;4.72;;;26.00;96.70;;;;;;4791317;29;20058;-87
2021/08/20 07:59:25;;;;;;;6.10;4.60;;;26.00;96.70;;;;;;4770406;29;20048;-88
2021/08/20 08:01:53;;;;;;;9.70;4.50;;;25.90;96.70;;;;;;4791899;29;20119;-85
2021/08/20 08:04:21;;;;;;;7.20;4.63;;;25.90;96.70;;;;;;4769984;29;20053;-89
2021/08/20 08:06:49;;;;;;;7.32;4.85;;;26.00;96.70;;;;;;4782974;29;20058;-88
2021/08/20 08:09:17;;;;;;;8.05;4.05;;;26.10;96.70;;;;;;4775064;29;20124;-88
2021/08/20 08:11:45;;;;;;;9.95;4.28;;;26.30;96.70;;;;;;4767342;29;20047;-87
2021/08/20 08:14:15;;;;;;;6.93;3.92;;;26.40;96.70;;;;;;4773811;29;20525;-88
2021/08/20 08:16:44;;;;;;;6.78;4.10;;;26.40;96.70;;;;;;4778765;29;20231;-87
2021/08/20 08:19:12;;;;;;;6.68;4.55;;;26.50;96.70;;;;;;4762024;29;20039;-88
2021/08/20 08:21:40;;;;;;;6.43;4.40;;;26.70;96.70;;;;;;4773832;29;20065;-88
2021/08/20 08:24:08;;;;;;;8.25;4.25;;;26.70;96.70;;;;;;4773380;29;20042;-88
2021/08/20 08:26:36;;;;;;;8.70;4.22;;;26.70;96.70;;;;;;4788702;29;20078;-87
2021/08/20 08:29:04;;;;;;;7.22;4.10;;;26.80;96.70;;;;;;4773623;29;20075;-84
2021/08/20 08:31:34;;;;;;;5.03;3.95;;;26.90;96.70;;;;;;4768176;29;20073;-87
2021/08/20 08:34:02;;;;;;;6.75;3.90;;;26.90;96.70;;;;;;4784351;29;20510;-86
2021/08/20 08:36:30;;;;;;;6.55;4.40;;;27.00;96.70;;;;;;4773493;29;20057;-87
2021/08/20 08:38:58;;;;;;;4.47;3.83;;;27.00;96.70;;;;;;4769684;29;20059;-87
2021/08/20 08:41:27;;;;;;;11.68;4.47;;;27.00;96.70;;;;;;4795493;29;20057;-85
2021/08/20 08:43:55;;;;;;;5.75;3.88;;;27.10;96.70;;;;;;4776417;29;20082;-86
2021/08/20 08:46:24;;;;;;;5.78;3.80;;;27.10;96.70;;;;;;4773301;29;20054;-88
2021/08/20 08:48:54;;;;;;;6.50;4.25;;;27.20;96.70;;;;;;4759318;29;20078;-87
2021/08/20 08:51:22;;;;;;;8.70;4.00;;;27.20;96.70;;;;;;4777276;30;20047;-87
2021/08/20 08:53:50;;;;;;;5.68;3.00;;;27.30;96.70;;;;;;4779316;29;20117;-86
2021/08/20 08:56:19;;;;;;;5.07;2.53;;;27.50;96.70;;;;;;4789226;29;20126;-86
2021/08/20 08:58:47;;;;;;;5.05;3.00;;;27.50;96.70;;;;;;4778914;29;20051;-86
2021/08/20 09:01:26;;;;;;;5.72;2.80;;;27.50;96.50;;;;;;4763754;29;20043;-84
2021/08/20 09:04:13;;;;;;;5.40;2.78;;;27.60;96.10;;;;;;4779337;29;20051;-84
2021/08/20 09:06:43;;;;;;;3.90;2.72;;;27.80;95.90;;;;;;4773565;29;20115;-87
2021/08/20 09:09:13;;;;;;;5.45;3.00;;;27.80;95.40;;;;;;4767427;29;20051;-87
2021/08/20 09:11:42;;;;;;;5.20;3.15;;;27.90;95.70;;;;;;4776921;29;20499;-87
2021/08/20 09:14:15;;;;;;;3.72;3.00;;;27.90;96.00;;;;;;4768799;30;20047;-88
2021/08/20 09:16:45;;;;;;;5.78;2.65;;;27.90;95.70;;;;;;4784114;29;20388;-88
2021/08/20 09:19:21;;;;;;;4.30;2.92;;;28.00;95.10;;;;;;4767891;30;20071;-87
2021/08/20 09:21:56;;;;;;;8.27;3.00;;;28.10;93.90;;;;;;4774778;29;20071;-87
2021/08/20 09:24:32;;;;;;;4.70;2.58;;;28.20;94.50;;;;;;4785228;29;20059;-87
2021/08/20 09:27:21;;;;;;;4.68;2.65;;;28.30;93.60;;;;;;4794224;29;20050;-86
2021/08/20 09:29:58;;;;;;;5.50;2.80;;;28.30;93.30;;;;;;4778904;29;20078;-85
2021/08/20 09:32:26;;;;;;;3.70;2.53;;;28.40;93.60;;;;;;4774745;29;20057;-84
2021/08/20 09:34:59;;;;;;;4.18;2.60;;;28.60;92.90;;;;;;4774821;29;20529;-85
2021/08/20 09:37:28;;;;;;;3.38;2.40;;;28.70;92.00;;;;;;4761239;29;20046;-86
2021/08/20 09:40:04;;;;;;;6.35;2.95;;;28.80;92.30;;;;;;4778715;29;20347;-86
2021/08/20 09:42:32;;;;;;;4.50;2.63;;;28.90;91.70;;;;;;4773967;29;20170;-86
2021/08/20 09:45:15;;;;;;;3.97;2.60;;;29.10;90.30;;;;;;4794203;29;20046;-86
2021/08/20 09:47:45;;;;;;;5.40;2.17;;;29.00;90.50;;;;;;4767220;29;20601;-86
2021/08/20 09:50:15;;;;;;;4.25;2.38;;;29.10;89.50;;;;;;4776107;29;20043;-85
2021/08/20 09:52:44;;;;;;;5.25;3.00;;;29.10;89.50;;;;;;4792817;29;20540;-86
2021/08/20 09:55:12;;;;;;;4.45;2.50;;;29.30;89.50;;;;;;4787425;29;20134;-85
2021/08/20 09:57:41;;;;;;;5.68;2.50;;;29.40;90.10;;;;;;4763829;29;20519;-85
2021/08/20 10:00:10;;;;;;;5.15;2.80;;;29.50;90.20;;;;;;4776884;29;20078;-86
2021/08/20 10:02:42;;;;;;;4.28;2.63;;;29.70;89.50;;;;;;4770981;29;20062;-85
2021/08/20 10:05:11;;;;;;;5.95;2.50;;;29.60;88.70;;;;;;4777595;29;20063;-85
2021/08/20 10:07:41;;;;;;;6.38;2.65;;;29.70;88.60;;;;;;4766939;30;20070;-85
2021/08/20 10:10:10;;;;;;;4.85;2.42;;;29.90;88.70;;;;;;4759594;30;20482;-86
2021/08/20 10:12:40;;;;;;;3.00;2.40;;;30.00;88.20;;;;;;4778728;29;20043;-86
2021/08/20 10:15:10;;;;;;;4.63;2.53;;;30.00;87.90;;;;;;4787185;29;20103;-85
2021/08/20 10:17:38;;;;;;;4.50;2.28;;;30.10;87.70;;;;;;4774506;29;20043;-86
2021/08/20 10:20:09;;;;;;;2.75;2.13;;;30.20;87.50;;;;;;4777092;29;20067;-85
2021/08/20 10:22:38;;;;;;;3.25;2.50;;;30.20;87.10;;;;;;4772621;29;20448;-85
2021/08/20 10:25:09;;;;;;;6.18;2.63;;;30.40;87.00;;;;;;4777468;29;20040;-86
2021/08/20 10:27:39;;;;;;;5.60;2.50;;;30.50;85.50;;;;;;4763635;29;20404;-85
2021/08/20 10:30:09;;;;;;;3.60;2.72;;;30.60;85.00;;;;;;4788065;29;20043;-85
2021/08/20 10:32:37;;;;;;;6.00;2.67;;;30.50;85.00;;;;;;4781325;29;20043;-85
2021/08/20 10:35:08;;;;;;;7.93;2.42;;;30.40;85.90;;;;;;4771804;30;20047;-85
2021/08/20 10:37:36;;;;;;;4.22;2.60;;;30.50;84.60;;;;;;4770926;29;20078;-86
2021/08/20 10:40:22;;;;;;;3.78;2.25;;;30.60;84.30;;;;;;4790815;29;20089;-85
2021/08/20 10:42:50;;;;;;;3.88;2.80;;;30.70;83.60;;;;;;4780498;29;20058;-85
2021/08/20 10:45:18;;;;;;;5.07;2.40;;;30.70;84.00;;;;;;4776389;29;20066;-84
2021/08/20 10:47:48;;;;;;;5.95;2.08;;;30.80;83.60;;;;;;4773772;29;20051;-85
2021/08/20 10:50:19;;;;;;;2.97;2.10;;;31.00;83.50;;;;;;4800101;29;20050;-85
2021/08/20 10:52:49;;;;;;;4.85;2.30;;;31.10;82.70;;;;;;4761727;29;20055;-84
2021/08/20 10:55:30;;;;;;;3.58;2.35;;;31.20;81.60;;;;;;4796009;29;20042;-84
2021/08/20 10:58:06;;;;;;;4.07;2.72;;;31.20;82.40;;;;;;4791389;29;20045;-84
2021/08/20 11:00:36;;;;;;;2.33;1.58;;;31.40;81.50;;;;;;4793836;29;20108;-86
2021/08/20 11:03:07;;;;;;;2.90;2.13;;;31.50;80.40;;;;;;4774088;29;20063;-86
2021/08/20 11:05:53;;;;;;;3.70;2.05;;;31.50;80.10;;;;;;4771431;29;20553;-85
2021/08/20 11:08:42;;;;;;;2.60;1.77;;;31.60;80.20;;;;;;4765555;29;20107;-84
2021/08/20 11:11:44;;;;;;;3.22;1.70;;;31.70;80.60;;;;;;4766155;29;20065;-85
2021/08/20 11:14:33;;;;;;;5.00;1.55;;;31.80;80.00;;;;;;4777305;29;20140;-84
2021/08/20 11:17:01;;;;;;;4.88;2.20;;;32.00;79.00;;;;;;4783740;29;20051;-84
2021/08/20 11:19:53;;;;;;;3.20;1.75;;;32.10;79.10;;;;;;4776715;29;20461;-84
2021/08/20 11:22:27;;;;;;;5.30;2.00;;;32.10;78.60;;;;;;4770069;29;20043;-85
2021/08/20 11:25:23;;;;;;;3.17;2.13;;;32.10;78.50;;;;;;4790675;29;20482;-86
2021/08/20 11:27:59;;;;;;;7.60;2.00;;;32.20;78.70;;;;;;4790049;29;20050;-86
2021/08/20 11:30:30;;;;;;;3.47;2.00;;;32.20;78.70;;;;;;4771519;29;20173;-87
2021/08/20 11:33:17;;;;;;;2.40;1.98;;;32.50;79.20;;;;;;4770775;29;20054;-86
2021/08/20 11:35:58;;;;;;;3.92;1.83;;;32.60;78.40;;;;;;4774233;29;20046;-85
2021/08/20 11:38:32;;;;;;;4.38;2.20;;;32.50;78.00;;;;;;4781701;29;20057;-85
2021/08/20 11:41:04;;;;;;;;;;;32.70;77.00;;;;;;4772946;29;20100;-87
2021/08/20 11:43:53;;;;;;;4.72;2.08;;;32.80;77.40;;;;;;4801446;29;19992;-87
2021/08/20 11:46:24;;;;;;;3.88;2.35;;;32.90;76.90;;;;;;4775196;29;20047;-85
2021/08/20 11:48:55;;;;;;;2.90;2.50;;;32.90;76.50;;;;;;4790607;29;20532;-88
2021/08/20 11:51:26;;;;;;;4.43;2.33;;;33.10;76.50;;;;;;4790871;29;20052;-90
2021/08/20 11:53:57;;;;;;;3.17;2.10;;;33.30;75.50;;;;;;4790072;29;20039;-90
2021/08/20 11:56:26;;;;;;;3.60;2.30;;;33.20;75.40;;;;;;4790413;29;20043;-88
2021/08/20 11:58:56;;;;;;;4.38;2.30;;;33.20;75.90;;;;;;4782119;29;20055;-90
2021/08/20 12:01:27;;;;;;;5.38;2.65;;;33.30;76.50;;;;;;4777863;29;20130;-85
2021/08/20 12:03:58;;;;;;;5.28;2.50;;;33.30;77.20;;;;;;4746451;30;20060;-86
2021/08/20 12:06:28;;;;;;;5.43;2.25;;;33.20;77.30;;;;;;4769084;29;20051;-88
2021/08/20 12:09:06;;;;;;;4.32;2.40;;;33.30;76.30;;;;;;4766503;29;20044;-86
2021/08/20 12:11:35;;;;;;;7.22;2.22;;;33.50;77.00;;;;;;4759360;30;20073;-87
2021/08/20 12:14:05;;;;;;;3.83;2.42;;;33.70;76.10;;;;;;4775123;30;20120;-88
2021/08/20 12:16:35;;;;;;;4.32;2.42;;;33.70;76.30;;;;;;4778565;29;20138;-88
2021/08/20 12:19:19;;;;;;;3.10;2.28;;;33.80;76.30;;;;;;4749754;30;20051;-86
2021/08/20 12:21:49;;;;;;;19.42;17.52;;;33.70;75.70;;;;;;4762924;30;20051;-86
2021/08/20 12:24:31;;;;;;;9.50;4.82;;;33.70;75.10;;;;;;4739204;30;20605;-84
2021/08/20 12:27:13;;;;;;;5.82;4.32;;;33.60;75.30;;;;;;4754005;30;20150;-86
2021/08/20 12:29:44;;;;;;;4.50;2.63;;;33.60;75.90;;;;;;4775999;29;20063;-86
2021/08/20 12:32:20;;;;;;;3.17;2.70;;;33.80;74.50;;;;;;4765375;29;20054;-88
2021/08/20 12:34:57;;;;;;;4.07;2.47;;;33.70;74.00;;;;;;4748487;29;20066;-88
2021/08/20 12:37:26;;;;;;;4.82;2.45;;;33.70;74.20;;;;;;4754386;30;20059;-88
2021/08/20 12:40:03;;;;;;;4.20;2.67;;;33.70;74.10;;;;;;4775160;30;20800;-87
2021/08/20 12:42:32;;;;;;;4.28;2.80;;;33.80;74.10;;;;;;4776044;30;20044;-88
2021/08/20 12:45:14;;;;;;;5.50;3.03;;;33.70;74.50;;;;;;4749112;29;20074;-89
2021/08/20 12:47:43;;;;;;;5.35;3.20;;;33.80;75.50;;;;;;4753357;29;20113;-88
2021/08/20 12:50:13;;;;;;;4.28;2.88;;;34.20;74.90;;;;;;4749653;29;20070;-89
2021/08/20 12:52:43;;;;;;;4.15;2.72;;;34.30;73.70;;;;;;4757507;30;20154;-87
2021/08/20 12:55:28;;;;;;;5.47;3.00;;;34.30;73.50;;;;;;4767342;30;20130;-87
2021/08/20 12:57:58;;;;;;;5.05;3.05;;;34.20;76.30;;;;;;4760251;30;20630;-87
2021/08/20 13:00:32;;;;;;;5.38;2.88;;;34.10;75.40;;;;;;4741695;30;20068;-85
2021/08/20 13:03:02;;;;;;;4.75;3.42;;;34.20;75.60;;;;;;4756143;30;20068;-83
2021/08/20 13:05:54;;;;;;;7.30;4.00;;;34.30;78.70;;;;;;4756843;30;20055;-86
2021/08/20 13:08:24;;;;;;;5.85;4.13;;;34.20;80.40;;;;;;4760848;30;20051;-85
2021/08/20 13:10:54;;;;;;;9.90;4.00;;;33.90;82.50;;;;;;4746654;30;20062;-84
2021/08/20 13:13:23;;;;;;;6.50;4.15;;;33.50;83.30;;;;;;4749904;30;20507;-85
2021/08/20 13:15:53;;;;;;;6.43;4.40;;;33.20;83.50;;;;;;4747393;30;20055;-85